Погода Крытнона 2 недели

Западнопоморское воеводство, Польша

19 июля-01 августа
  • 19июля
    Сегодня
    +11°
    +23°
    Практически безоблачно
    ВремяПогодаТемператураВлажностьДавлениеВетер, м/сВероятность осадков
    02:00Ясно и безоблачно+14°C95 %766 мм2.3 м/с2 %
    05:00Ясно и безоблачно+13°C94 %766 мм2.3 м/с2 %
    08:00Ясно и безоблачно+17°C84 %766 мм2.4 м/с2 %
    11:00Практически безоблачно+21°C68 %765 мм4.3 м/с2 %
    14:00Практически безоблачно+22°C63 %765 мм4.5 м/с2 %
    17:00Ясно и безоблачно+21°C67 %764 мм3.6 м/с2 %
    20:00Ясно и безоблачно+19°C79 %763 мм1.1 м/с2 %
    23:00Ясно и безоблачно+14°C96 %763 мм2.0 м/с2 %
  • 20июля
    Суббота
    +14°
    +24°
    Ясно и безоблачно
    ВремяПогодаТемператураВлажностьДавлениеВетер, м/сВероятность осадков
    02:00Ясно и безоблачно+13°C98 %762 мм1.8 м/с2 %
    05:00Ясно и безоблачно+11°C96 %761 мм1.6 м/с2 %
    08:00Ясно и безоблачно+17°C85 %761 мм1.6 м/с2 %
    11:00Ясно и безоблачно+22°C67 %760 мм1.9 м/с2 %
    14:00Ясно и безоблачно+24°C63 %760 мм2.1 м/с2 %
    17:00Ясно и безоблачно+23°C63 %759 мм2.3 м/с2 %
    20:00Ясно и безоблачно+20°C79 %758 мм1.4 м/с2 %
    23:00Ясно и безоблачно+16°C94 %758 мм1.9 м/с2 %
  • 21июля
    Воскресенье
    +16°
    +28°
    Ясно и безоблачно
    ВремяПогодаТемператураВлажностьДавлениеВетер, м/сВероятность осадков
    02:00Ясно и безоблачно+15°C95 %757 мм1.7 м/с2 %
    05:00Ясно и безоблачно+14°C97 %757 мм1.6 м/с2 %
    08:00Ясно и безоблачно+19°C84 %757 мм1.9 м/с2 %
    11:00Ясно и безоблачно+24°C64 %757 мм2.1 м/с2 %
    14:00Ясно и безоблачно+27°C51 %756 мм1.3 м/с2 %
    17:00Ясно и безоблачно+27°C51 %756 мм2.1 м/с4 %
    20:00Ясно и безоблачно+23°C73 %755 мм3.5 м/с2 %
    23:00Практически безоблачно+19°C75 %756 мм3.8 м/с2 %
  • 22июля
    Понедельник
    +15°
    +26°
    Пасмурно, сплошная облачность
    ВремяПогодаТемператураВлажностьДавлениеВетер, м/сВероятность осадков
    02:00Ясно и безоблачно+17°C80 %756 мм3.2 м/с2 %
    05:00Ясно и безоблачно+17°C83 %756 мм3.2 м/с2 %
    08:00Облачно с прояснениями+21°C78 %756 мм2.9 м/с2 %
    11:00Облачно с прояснениями+25°C63 %756 мм2.2 м/с5 %
    14:00Пасмурно, сплошная облачность+24°C66 %756 мм3.1 м/с40 %
    17:00Пасмурно, небольшой дождь+20°C86 %757 мм3.8 м/с54 %
    20:00Пасмурно, ливень+19°C93 %758 мм3.3 м/с53 %
    23:00Практически безоблачно+18°C93 %759 мм3.7 м/с36 %
  • 23июля
    Вторник
    +13°
    +21°
    Ясно и безоблачно
    ВремяПогодаТемператураВлажностьДавлениеВетер, м/сВероятность осадков
    02:00Небольшая облачность+17°C93 %760 мм3.2 м/с38 %
    05:00Практически безоблачно+15°C89 %760 мм2.5 м/с43 %
    08:00Практически безоблачно+18°C77 %761 мм3.7 м/с35 %
    11:00Практически безоблачно+20°C68 %761 мм4.2 м/с41 %
    14:00Ясно и безоблачно+21°C64 %761 мм3.7 м/с32 %
    17:00Ясно и безоблачно+20°C63 %761 мм2.4 м/с19 %
    20:00Ясно и безоблачно+19°C79 %760 мм0.7 м/с8 %
    23:00Ясно и безоблачно+14°C92 %760 мм1.4 м/с12 %
Мы используем cookies
Соглашаюсь